• Join FlightAware (Why Join?)
  • Login
  • US Flag 
07:59AM EDT


 

Airport Tracker/Info


-or-


 

Live Flight TrackerFlight Track Log ✈ DAL3678 ✈ 12-Apr-2013 ✈ KMKE - KDTW

Flight Track Log - Related Links

Times and Time Zones

All times are in EDT time to prevent confusion due to time zone crossing. See the DAL3678 flight status page for this flight to view local times or setup timezone preferences in your user account.

Time Position Orientation Groundspeed Altitude Reporting Facility
EDT Latitude Longitude Course Direction KTS MPH feet Rate Location/Type
04:05PM 42.9333 -87.9167 101° East 153 176 1,400  Level KMKE
04:06PM 42.9167 -87.9333 216° Southwest 177 204 2,300 2,100 Climbing KMKE
04:07PM 42.9000 -87.8500 105° East 241 277 4,600 2,160 Climbing KMKE
04:08PM 42.9000 -87.7500 90° East 298 343 6,700 2,160 Climbing KMKE
04:09PM 42.9092 -87.6603 82° East 293 337 8,800 1,860 Climbing Chicago Center
04:10PM 42.9117 -87.5431 88° East 306 352 10,400 1,560 Climbing Chicago Center
04:11PM 42.8402 -87.1542 101° East  Level Estimated
04:11PM 42.9267 -87.3825 83° East 360 414 12,100  Level Chicago Center
04:12PM 42.9456 -87.2619 78° East 378 435 13,700 1,800 Climbing Chicago Center
04:13PM 42.9739 -87.0878 77° East 391 450 15,900 1,740 Climbing Chicago Center
04:14PM 42.9972 -86.9386 78° East 401 461 17,300 1,500 Climbing Chicago Center
04:15PM 43.0211 -86.7842 78° East 413 475 19,000 1,440 Climbing Chicago Center
04:16PM 43.0456 -86.6261 78° East 423 487 20,300 960 Climbing Chicago Center
04:17PM 43.0703 -86.4650 78° East 432 497 21,000 300 Climbing Chicago Center
04:18PM 43.0956 -86.2936 79° East 454 522 21,000  Level Chicago Center
04:19PM 43.1219 -86.1119 79° East 475 547 21,000  Level Chicago Center
04:20PM 43.1494 -85.9253 79° East 482 555 21,000 660 Level Chicago Center
04:21PM 43.1797 -85.7128 79° East 472 543 22,400 960 Climbing Chicago Center
04:22PM 43.2031 -85.5444 79° East 453 521 23,000 240 Climbing Chicago Center
04:23PM 43.2281 -85.3708 79° East 460 529 23,000  Level Chicago Center
04:23PM 43.2369 -85.3031 80° East 463 533 23,000  Level Cleveland Center
04:24PM 43.2275 -85.1256 94° East 463 533 23,000  Level Cleveland Center
04:25PM 43.1967 -84.9522 104° East 460 529 23,000  Level Cleveland Center
04:26PM 43.1528 -84.7839 110° East 466 536 23,000  Level Cleveland Center
04:27PM 43.1153 -84.6503 111° Southeast 466 536 23,000  Level Chicago Center
04:28PM 43.0661 -84.4853 112° Southeast 468 539 23,000 -1,020 Level Chicago Center
04:29PM 43.0047 -84.2997 114° Southeast 460 529 20,800 -2,280 Descending Cleveland Center
04:30PM 42.9750 -84.1844 109° East 418 481 18,700 -2,940 Descending Cleveland Center
04:30PM 42.9594 -84.1494 121° Southeast 446 513 17,900 -2,820 Descending Cleveland Center
04:31PM 42.9183 -83.9967 110° East 394 453 15,000 -2,820 Descending Cleveland Center
04:32PM 42.8781 -83.8756 114° Southeast 382 440 12,600 -1,560 Descending Cleveland Center
04:33PM 42.8375 -83.7544 115° Southeast 319 367 12,000 -840 Descending Cleveland Center
04:34PM 42.7764 -83.7033 148° Southeast 235 270 11,000 -1,260 Descending Cleveland Center
04:35PM 42.7150 -83.6664 156° South 246 283 9,400 -1,020 Descending Cleveland Center
04:36PM 42.6617 -83.6325 155° Southeast 236 272 9,000 -300 Descending Cleveland Center
04:37PM 42.6275 -83.6081 152° Southeast 246 283 9,000 -660 Level FAA TRACON SMA TRACON (SMA)
04:37PM 42.6164 -83.5833 121° Southeast 259 298 8,500 -1,380 Descending FAA TRACON SMA TRACON (SMA)
04:38PM 42.6128 -83.5572 101° East 273 314 8,100 -1,200 Descending FAA TRACON SMA TRACON (SMA)
04:38PM 42.6081 -83.5164 99° East 256 295 7,700 -1,200 Descending FAA TRACON SMA TRACON (SMA)
04:38PM 42.6044 -83.4878 100° East 251 289 7,300 -1,380 Descending FAA TRACON SMA TRACON (SMA)
04:39PM 42.6017 -83.4611 98° East 251 289 6,800 -1,500 Descending FAA TRACON SMA TRACON (SMA)
04:39PM 42.5964 -83.4225 101° East 253 291 6,300 -1,200 Descending FAA TRACON SMA TRACON (SMA)
04:39PM 42.5925 -83.3939 100° East 251 289 6,000 -480 Descending FAA TRACON SMA TRACON (SMA)
04:40PM 42.5900 -83.3672 97° East 250 288 6,000  Level FAA TRACON SMA TRACON (SMA)
04:40PM 42.5842 -83.3292 102° East 251 289 6,000 -300 Level FAA TRACON SMA TRACON (SMA)
04:40PM 42.5808 -83.3003 99° East 251 289 5,800 -960 Descending FAA TRACON SMA TRACON (SMA)
04:41PM 42.5764 -83.2753 104° East 251 289 5,400 -1,380 Descending FAA TRACON SMA TRACON (SMA)
04:41PM 42.5672 -83.2394 109° East 240 276 4,900 -1,500 Descending FAA TRACON SMA TRACON (SMA)
04:41PM 42.5600 -83.2128 110° East 248 285 4,400 -1,260 Descending FAA TRACON SMA TRACON (SMA)
04:42PM 42.5497 -83.1925 125° Southeast 230 265 4,100 -780 Descending FAA TRACON SMA TRACON (SMA)
04:42PM 42.5319 -83.1736 142° Southeast 209 241 3,900 -180 Descending FAA TRACON SMA TRACON (SMA)
04:42PM 42.5125 -83.1750 183° South 210 242 4,000 120 Climbing FAA TRACON SMA TRACON (SMA)
04:43PM 42.4944 -83.1772 185° South 211 243 4,000  Level FAA TRACON SMA TRACON (SMA)
04:43PM 42.4750 -83.1806 187° South 185 213 4,000  Level FAA TRACON SMA TRACON (SMA)
04:43PM 42.4619 -83.1883 204° Southwest 165 190 4,000  Level FAA TRACON SMA TRACON (SMA)
04:44PM 42.4486 -83.1994 212° Southwest 157 181 4,000  Level FAA TRACON SMA TRACON (SMA)
04:44PM 42.4353 -83.2117 214° Southwest 160 184 4,000  Level FAA TRACON SMA TRACON (SMA)
04:44PM 42.4244 -83.2206 211° Southwest 160 184 4,000  Level FAA TRACON SMA TRACON (SMA)
04:45PM 42.4114 -83.2308 210° Southwest 155 178 4,000  Level FAA TRACON SMA TRACON (SMA)
04:45PM 42.3964 -83.2414 207° Southwest 160 184 4,000  Level FAA TRACON SMA TRACON (SMA)
04:45PM 42.3850 -83.2489 206° Southwest 157 181 4,000  Level FAA TRACON SMA TRACON (SMA)
04:46PM 42.3719 -83.2583 208° Southwest 156 180 4,000 -300 Level FAA TRACON SMA TRACON (SMA)
04:46PM 42.3581 -83.2683 208° Southwest 154 177 3,800 -600 Descending FAA TRACON SMA TRACON (SMA)
04:46PM 42.3475 -83.2767 210° Southwest 151 174 3,600 -780 Descending FAA TRACON SMA TRACON (SMA)
04:47PM 42.3347 -83.2867 210° Southwest 150 173 3,300 -900 Descending FAA TRACON SMA TRACON (SMA)
04:47PM 42.3233 -83.2947 208° Southwest 155 178 3,000 -1,080 Descending FAA TRACON SMA TRACON (SMA)
04:47PM 42.3083 -83.3058 209° Southwest 163 188 2,600 -900 Descending FAA TRACON SMA TRACON (SMA)
04:48PM 42.2967 -83.3144 209° Southwest 161 185 2,400 -960 Descending FAA TRACON SMA TRACON (SMA)
04:48PM 42.2828 -83.3244 208° Southwest 143 165 2,000 -900 Descending FAA TRACON SMA TRACON (SMA)
04:48PM 42.2733 -83.3317 210° Southwest 123 142 1,800 -600 Descending FAA TRACON SMA TRACON (SMA)
04:49PM 42.2625 -83.3400 210° Southwest 128 147 1,600 -600 Descending FAA TRACON SMA TRACON (SMA)
04:49PM 42.2531 -83.3464 207° Southwest 128 147 1,400 -600 Descending FAA TRACON SMA TRACON (SMA)